createdAt,value
2018-09-02T00:01:30.080Z,91.30
2018-09-02T00:03:58.291Z,91.50
2018-09-02T00:06:26.431Z,91.50
2018-09-02T00:08:54.598Z,91.60
2018-09-02T00:11:22.816Z,91.60
2018-09-02T00:13:51.008Z,91.70
2018-09-02T00:16:19.254Z,91.80
2018-09-02T00:18:47.348Z,91.80
2018-09-02T00:21:15.569Z,91.80
2018-09-02T00:23:43.787Z,92.00
2018-09-02T00:26:11.935Z,92.10
2018-09-02T00:28:40.139Z,92.10
2018-09-02T00:31:08.402Z,92.20
2018-09-02T00:33:36.678Z,92.30
2018-09-02T00:36:04.865Z,92.30
2018-09-02T00:38:33.132Z,92.20
2018-09-02T00:41:01.396Z,92.20
2018-09-02T00:43:29.705Z,92.30
2018-09-02T00:45:57.838Z,92.30
2018-09-02T00:48:26.132Z,92.40
2018-09-02T00:50:54.320Z,92.40
2018-09-02T00:53:22.513Z,92.50
2018-09-02T00:55:50.782Z,92.50
2018-09-02T00:58:18.946Z,92.50
2018-09-02T01:00:47.124Z,92.50
2018-09-02T01:03:15.430Z,92.50
2018-09-02T01:05:43.620Z,92.60
2018-09-02T01:08:11.757Z,92.90
2018-09-02T01:10:40.092Z,92.70
2018-09-02T01:13:08.313Z,92.70
2018-09-02T01:15:36.474Z,92.70
2018-09-02T01:18:04.651Z,92.90
2018-09-02T01:20:32.829Z,92.80
2018-09-02T01:23:01.161Z,92.80
2018-09-02T01:25:29.470Z,92.90
2018-09-02T01:27:57.664Z,93.00
2018-09-02T01:30:25.913Z,93.40
2018-09-02T01:32:54.108Z,93.10
2018-09-02T01:35:27.609Z,93.10
2018-09-02T01:37:55.796Z,93.10
2018-09-02T01:40:23.991Z,93.10
2018-09-02T01:42:52.148Z,93.10
2018-09-02T01:45:20.424Z,93.40
2018-09-02T01:47:48.810Z,93.10
2018-09-02T01:50:17.184Z,93.20
2018-09-02T01:52:45.378Z,93.30
2018-09-02T01:55:13.657Z,93.40
2018-09-02T01:57:41.873Z,93.50
2018-09-02T02:00:10.092Z,93.50
2018-09-02T02:02:38.486Z,93.30
2018-09-02T02:05:06.721Z,93.30
2018-09-02T02:07:34.929Z,93.30
2018-09-02T02:10:03.162Z,93.30
2018-09-02T02:12:31.408Z,93.40
2018-09-02T02:32:00.767Z,93.50
2018-09-02T02:34:29.117Z,93.50
2018-09-02T02:36:57.334Z,93.60
2018-09-02T02:39:25.536Z,93.70
2018-09-02T02:41:53.828Z,93.80
2018-09-02T02:44:22.075Z,93.80
2018-09-02T02:46:50.242Z,93.80
2018-09-02T02:49:18.481Z,93.90
2018-09-02T02:51:46.742Z,93.90
2018-09-02T02:54:14.914Z,93.80
2018-09-02T02:56:43.170Z,93.90
2018-09-02T02:59:11.317Z,94.00
2018-09-02T03:01:39.520Z,94.00
2018-09-02T03:04:07.748Z,94.00
2018-09-02T03:06:36.073Z,94.00
2018-09-02T03:09:05.350Z,94.00
2018-09-02T03:11:33.659Z,94.00
2018-09-02T03:14:02.088Z,94.00
2018-09-02T03:16:30.288Z,94.00
2018-09-02T03:22:21.033Z,93.90
2018-09-02T03:24:49.238Z,93.90
2018-09-02T03:27:17.442Z,94.00
2018-09-02T03:29:45.607Z,94.10
2018-09-02T03:32:13.820Z,94.20
2018-09-02T03:34:41.977Z,94.10
2018-09-02T03:37:10.320Z,94.10
2018-09-02T03:39:38.721Z,94.10
2018-09-02T03:42:06.959Z,94.00
2018-09-02T03:44:35.125Z,94.10
2018-09-02T03:47:03.468Z,94.10
2018-09-02T03:49:31.646Z,94.10
2018-09-02T03:51:59.872Z,94.00
2018-09-02T03:54:28.076Z,93.90
2018-09-02T03:56:56.320Z,94.00
2018-09-02T03:59:24.841Z,94.10
2018-09-02T04:01:53.064Z,94.10
2018-09-02T04:04:21.417Z,93.90
2018-09-02T04:06:49.649Z,93.90
2018-09-02T04:09:17.856Z,93.90
2018-09-02T04:11:47.501Z,94.00
2018-09-02T04:14:15.747Z,94.10
2018-09-02T04:16:43.902Z,94.10
2018-09-02T04:19:12.053Z,94.10
2018-09-02T04:21:40.249Z,94.20
2018-09-02T04:24:08.454Z,94.30
2018-09-02T04:26:36.630Z,94.10
2018-09-02T04:29:04.936Z,94.20
2018-09-02T04:31:33.149Z,94.10
2018-09-02T04:34:02.247Z,94.10
2018-09-02T04:36:30.560Z,94.20
2018-09-02T04:38:58.829Z,94.20
2018-09-02T04:41:27.129Z,94.00
2018-09-02T04:43:55.363Z,93.90
2018-09-02T04:46:23.621Z,94.10
2018-09-02T04:48:51.798Z,94.20
2018-09-02T04:51:20.287Z,94.20
2018-09-02T04:53:48.454Z,94.00
2018-09-02T04:56:16.767Z,93.90
2018-09-02T04:58:45.006Z,93.90
2018-09-02T05:01:13.229Z,93.90
2018-09-02T05:03:41.392Z,94.00
2018-09-02T05:06:09.630Z,93.90
2018-09-02T05:09:08.437Z,93.90
2018-09-02T05:11:38.559Z,93.90
2018-09-02T05:14:06.827Z,93.90
2018-09-02T05:16:36.106Z,93.80
2018-09-02T05:19:04.290Z,93.80
2018-09-02T05:21:32.519Z,93.80
2018-09-02T05:24:00.912Z,93.80
2018-09-02T05:26:29.281Z,93.70
2018-09-02T05:28:57.444Z,93.50
2018-09-02T05:31:26.023Z,93.40
2018-09-02T05:33:54.304Z,93.40
2018-09-02T05:36:22.864Z,93.20
2018-09-02T05:38:51.216Z,93.10
2018-09-02T05:41:19.440Z,93.10
2018-09-02T05:43:47.675Z,92.80
2018-09-02T05:46:16.009Z,92.80
2018-09-02T05:48:44.273Z,92.90
2018-09-02T05:51:13.159Z,92.90
2018-09-02T05:53:41.376Z,92.80
2018-09-02T05:56:09.637Z,92.60
2018-09-02T05:58:37.937Z,92.50
2018-09-02T06:01:06.163Z,92.30
2018-09-02T06:03:34.485Z,92.00
2018-09-02T06:06:02.977Z,91.90
2018-09-02T06:08:31.355Z,91.60
2018-09-02T06:10:59.569Z,91.30
2018-09-02T06:13:27.792Z,91.10
2018-09-02T06:15:56.222Z,90.70
2018-09-02T06:18:24.513Z,90.50
2018-09-02T06:20:52.698Z,90.50
2018-09-02T06:23:20.962Z,90.40
2018-09-02T06:25:49.332Z,90.20
2018-09-02T06:28:17.827Z,90.00
2018-09-02T06:30:47.581Z,89.20
2018-09-02T06:33:15.878Z,89.40
2018-09-02T06:35:44.096Z,89.20
2018-09-02T06:38:12.344Z,89.00
2018-09-02T06:40:40.812Z,88.70
2018-09-02T06:43:09.283Z,88.00
2018-09-02T06:45:37.682Z,87.40
2018-09-02T06:48:05.983Z,86.10
2018-09-02T06:50:34.292Z,86.00
2018-09-02T06:53:02.569Z,86.50
2018-09-02T06:55:31.309Z,85.70
2018-09-02T06:57:59.523Z,85.50
2018-09-02T07:00:27.721Z,85.40
2018-09-02T07:02:55.977Z,85.00
2018-09-02T07:05:24.312Z,85.30
2018-09-02T07:07:52.557Z,85.10
2018-09-02T07:12:24.776Z,84.10
2018-09-02T07:14:53.262Z,84.20
2018-09-02T07:17:22.014Z,83.30
2018-09-02T07:19:50.864Z,83.50
2018-09-02T07:22:19.560Z,83.70
2018-09-02T07:24:49.232Z,82.80
2018-09-02T07:27:18.367Z,81.60
2018-09-02T07:29:46.885Z,81.90
2018-09-02T07:32:15.305Z,81.70
2018-09-02T07:34:43.667Z,79.30
2018-09-02T07:37:12.237Z,78.60
2018-09-02T07:39:40.716Z,78.80
2018-09-02T07:42:09.422Z,77.60
2018-09-02T07:44:38.739Z,77.30
2018-09-02T07:47:07.365Z,76.70
2018-09-02T07:49:35.986Z,74.10
2018-09-02T07:57:54.698Z,73.70
2018-09-02T08:00:24.129Z,72.90
2018-09-02T08:08:38.363Z,70.30
2018-09-02T08:11:07.011Z,69.10
2018-09-02T08:13:35.551Z,68.60
2018-09-02T10:05:39.710Z,37.20
2018-09-02T10:08:08.035Z,36.40
2018-09-02T10:10:36.567Z,36.50
2018-09-02T10:13:05.153Z,36.50
2018-09-02T10:15:33.302Z,36.30
2018-09-02T10:18:01.808Z,36.60
2018-09-02T10:20:30.598Z,37.50
2018-09-02T10:22:58.826Z,38.60
2018-09-02T10:25:27.078Z,39.60
2018-09-02T10:27:55.479Z,41.30
2018-09-02T10:32:26.863Z,41.80
2018-09-02T10:34:55.206Z,43.00
2018-09-02T10:37:24.404Z,43.50
2018-09-02T10:39:52.994Z,42.70
2018-09-02T10:42:22.426Z,43.20
2018-09-02T10:44:51.180Z,42.50
2018-09-02T10:47:20.441Z,42.70
2018-09-02T10:49:48.871Z,42.10
2018-09-02T10:52:18.378Z,43.50
2018-09-02T10:54:46.675Z,43.70
2018-09-02T10:57:15.128Z,43.30
2018-09-02T10:59:43.831Z,43.70
2018-09-02T11:02:12.260Z,43.50
2018-09-02T11:04:40.815Z,41.90
2018-09-02T11:07:09.335Z,41.40
2018-09-02T11:09:37.805Z,42.40
2018-09-02T11:12:06.450Z,41.70
2018-09-02T11:14:34.686Z,42.30
2018-09-02T11:17:04.563Z,42.10
2018-09-02T11:19:33.121Z,41.90
2018-09-02T11:22:01.704Z,42.60
2018-09-02T11:24:30.318Z,43.10
2018-09-02T11:27:00.275Z,41.70
2018-09-02T11:29:28.665Z,41.30
2018-09-02T11:31:57.088Z,41.10
2018-09-02T11:34:25.786Z,40.90
2018-09-02T11:36:54.303Z,41.60
2018-09-02T11:39:24.501Z,41.40
2018-09-02T11:41:52.930Z,41.30
2018-09-02T11:44:22.419Z,41.40
2018-09-02T11:46:51.040Z,40.70
2018-09-02T11:49:19.503Z,40.90
2018-09-02T11:51:47.813Z,41.00
2018-09-02T11:54:16.871Z,41.20
2018-09-02T11:56:45.274Z,42.30
2018-09-02T11:59:13.654Z,41.80
2018-09-02T12:02:29.271Z,41.40
2018-09-02T12:05:01.238Z,41.30
2018-09-02T12:07:29.527Z,42.80
2018-09-02T12:09:57.840Z,41.70
2018-09-02T12:12:32.761Z,41.80
2018-09-02T12:15:01.029Z,42.40
2018-09-02T12:17:29.417Z,41.60
2018-09-02T12:19:58.091Z,41.70
2018-09-02T12:22:26.447Z,41.60
2018-09-02T12:24:54.733Z,41.60
2018-09-02T12:27:23.714Z,40.80
2018-09-02T12:29:54.156Z,40.80
2018-09-02T12:32:23.438Z,40.40
2018-09-02T12:34:51.931Z,40.90
2018-09-02T12:37:20.346Z,40.30
2018-09-02T12:39:48.838Z,40.70
2018-09-02T12:42:19.356Z,39.90
2018-09-02T12:44:47.824Z,40.30
2018-09-02T12:47:16.444Z,40.20
2018-09-02T12:49:44.726Z,40.30
2018-09-02T12:52:13.047Z,40.20
2018-09-02T12:54:41.849Z,41.10
2018-09-02T12:57:10.046Z,39.90
2018-09-02T12:59:38.350Z,40.30
2018-09-02T13:02:06.544Z,40.80
2018-09-02T13:04:34.767Z,40.20
2018-09-02T13:07:02.978Z,40.00
2018-09-02T13:09:31.165Z,40.00
2018-09-02T13:11:59.515Z,40.10
2018-09-02T13:14:27.781Z,38.50
2018-09-02T13:16:56.097Z,39.30
2018-09-02T13:19:24.276Z,38.50
2018-09-02T13:22:29.861Z,38.70
2018-09-02T13:24:58.505Z,38.30
2018-09-02T13:27:27.145Z,39.20
2018-09-02T13:29:56.020Z,38.50
2018-09-02T13:32:25.037Z,38.80
2018-09-02T13:34:53.442Z,38.30
2018-09-02T13:37:22.696Z,38.80
2018-09-02T13:39:52.400Z,38.30
2018-09-02T13:42:22.193Z,38.90
2018-09-02T13:44:51.296Z,38.70
2018-09-02T13:47:21.653Z,38.60
2018-09-02T13:49:51.468Z,38.30
2018-09-02T13:52:19.987Z,38.70
2018-09-02T13:54:49.488Z,38.70
2018-09-02T13:57:18.755Z,38.80
2018-09-02T13:59:47.461Z,39.00
2018-09-02T14:02:16.945Z,38.80
2018-09-02T14:04:45.386Z,39.50
2018-09-02T16:57:37.865Z,44.50
2018-09-02T17:00:07.197Z,44.60
2018-09-02T17:02:35.639Z,44.10
2018-09-02T17:05:13.257Z,44.50
2018-09-02T17:07:42.272Z,44.60
2018-09-02T17:10:10.585Z,44.80
2018-09-02T17:12:39.114Z,44.40
2018-09-02T17:15:08.105Z,44.60
2018-09-02T17:17:37.171Z,44.70
2018-09-02T17:20:07.199Z,45.10
2018-09-02T17:22:35.539Z,45.40
2018-09-02T17:25:04.532Z,45.40
2018-09-02T17:27:32.936Z,45.70
2018-09-02T17:30:02.026Z,46.10
2018-09-02T17:32:32.482Z,46.50
2018-09-02T17:35:01.490Z,46.80
2018-09-02T17:37:29.712Z,47.00
2018-09-02T17:39:58.085Z,47.20
2018-09-02T17:42:26.459Z,47.70
2018-09-02T17:44:54.846Z,48.10
2018-09-02T17:47:23.047Z,48.00
2018-09-02T17:49:51.549Z,48.00
2018-09-02T17:52:21.775Z,48.30
2018-09-02T18:02:34.116Z,48.40
2018-09-02T18:05:02.525Z,48.50
2018-09-02T18:07:30.910Z,48.60
2018-09-02T18:10:00.263Z,48.40
2018-09-02T18:12:30.306Z,49.40
2018-09-02T18:14:58.857Z,48.50
2018-09-02T18:17:27.289Z,49.20
2018-09-02T18:19:55.576Z,49.00
2018-09-02T18:22:24.105Z,48.90
2018-09-02T18:24:52.408Z,49.10
2018-09-02T18:27:24.964Z,49.40
2018-09-02T18:29:58.432Z,49.50
2018-09-02T18:32:30.108Z,49.90
2018-09-02T18:34:59.362Z,50.20
2018-09-02T18:37:29.020Z,50.60
2018-09-02T18:39:57.551Z,50.80
2018-09-02T18:42:26.305Z,51.00
2018-09-02T18:44:54.653Z,51.20
2018-09-02T18:47:22.903Z,51.30
2018-09-02T18:49:51.174Z,51.40
2018-09-02T18:52:19.577Z,51.70
2018-09-02T18:54:47.850Z,51.90
2018-09-02T18:57:16.351Z,52.10
2018-09-02T18:59:45.546Z,52.30
2018-09-02T19:02:14.064Z,52.10
2018-09-02T19:04:42.384Z,52.20
2018-09-02T19:07:10.716Z,52.10
2018-09-02T19:09:41.365Z,52.10
2018-09-02T19:12:09.789Z,52.10
2018-09-02T19:14:38.175Z,53.10
2018-09-02T19:17:06.637Z,52.70
2018-09-02T19:19:34.850Z,53.10
2018-09-02T19:22:04.537Z,52.90
2018-09-02T19:24:33.153Z,53.00
2018-09-02T19:27:01.598Z,53.00
2018-09-02T19:29:29.938Z,53.20
2018-09-02T19:31:58.657Z,53.30
2018-09-02T19:34:26.947Z,53.40
2018-09-02T19:36:55.227Z,53.40
2018-09-02T19:39:23.745Z,53.60
2018-09-02T19:41:52.029Z,53.90
2018-09-02T20:02:15.544Z,54.00
2018-09-02T20:04:43.964Z,54.10
2018-09-02T20:07:12.179Z,55.30
2018-09-02T20:09:40.442Z,55.60
2018-09-02T20:12:14.217Z,55.60
2018-09-02T20:14:45.513Z,55.70
2018-09-02T20:17:14.797Z,56.60
2018-09-02T20:19:46.005Z,56.40
2018-09-02T20:22:20.586Z,56.60
2018-09-02T20:24:51.922Z,56.50
2018-09-02T20:27:25.734Z,57.20
2018-09-02T20:29:58.656Z,57.60
2018-09-02T20:32:31.288Z,57.20
2018-09-02T20:35:02.485Z,57.80
2018-09-02T20:37:35.134Z,58.00
2018-09-02T20:40:05.483Z,58.00
2018-09-02T20:42:37.322Z,58.90
2018-09-02T20:45:07.592Z,59.30
2018-09-02T20:47:35.980Z,58.60
2018-09-02T20:50:04.185Z,58.80
2018-09-02T20:52:32.431Z,59.20
2018-09-02T20:55:00.790Z,59.50
2018-09-02T20:57:30.207Z,59.70
2018-09-02T20:59:58.364Z,59.80
2018-09-02T21:02:28.701Z,60.00
2018-09-02T21:04:57.553Z,60.20
2018-09-02T21:07:25.755Z,60.80
2018-09-02T21:09:54.160Z,60.70
2018-09-02T21:12:22.525Z,61.00
2018-09-02T21:14:50.849Z,61.10
2018-09-02T21:17:19.084Z,61.40
2018-09-02T21:23:03.036Z,61.60
2018-09-02T21:25:31.212Z,61.70
2018-09-02T21:27:59.476Z,62.40
2018-09-02T21:30:27.848Z,62.60
2018-09-02T21:42:36.575Z,63.20
2018-09-02T21:45:04.851Z,62.60
2018-09-02T21:47:33.065Z,63.40
2018-09-02T21:50:01.419Z,63.70
2018-09-02T21:52:29.679Z,63.90
2018-09-02T21:54:58.020Z,64.10
2018-09-02T21:57:26.361Z,64.20
2018-09-02T21:59:54.624Z,64.50
2018-09-02T22:02:39.833Z,64.80
2018-09-02T22:05:09.293Z,65.00
2018-09-02T22:07:37.557Z,65.30
2018-09-02T22:10:05.885Z,65.50
2018-09-02T22:12:34.523Z,65.40
2018-09-02T22:15:02.788Z,65.70
2018-09-02T22:17:30.983Z,65.70
2018-09-02T22:19:59.221Z,65.80
2018-09-02T22:22:27.413Z,66.10
2018-09-02T22:24:55.666Z,66.30
2018-09-02T22:27:23.975Z,66.40
2018-09-02T22:29:52.244Z,66.40
2018-09-02T22:32:20.525Z,66.90
2018-09-02T22:34:49.621Z,67.20
2018-09-02T22:37:18.082Z,67.20
2018-09-02T22:39:46.354Z,67.50
2018-09-02T22:42:14.927Z,67.50
2018-09-02T22:44:43.122Z,67.70
2018-09-02T22:47:11.291Z,68.10
2018-09-02T22:49:39.634Z,68.20
2018-09-02T22:52:07.846Z,68.50
2018-09-02T22:54:36.079Z,68.50
2018-09-02T22:57:04.267Z,68.50
2018-09-02T22:59:32.471Z,68.50
2018-09-02T23:02:00.684Z,68.70
2018-09-02T23:04:28.858Z,68.80
2018-09-02T23:06:57.072Z,68.90
2018-09-02T23:09:25.283Z,69.00
2018-09-02T23:11:53.473Z,69.50
2018-09-02T23:14:21.802Z,69.40
2018-09-02T23:16:50.012Z,70.70
2018-09-02T23:19:18.252Z,70.00
2018-09-02T23:21:46.439Z,69.90
2018-09-02T23:24:14.687Z,70.20
2018-09-02T23:26:42.951Z,69.90
2018-09-02T23:29:11.106Z,70.00
2018-09-02T23:32:38.451Z,70.40
2018-09-02T23:35:06.668Z,70.40
2018-09-02T23:37:34.901Z,70.90
2018-09-02T23:40:03.213Z,70.90
2018-09-02T23:42:31.461Z,70.80
2018-09-02T23:44:59.760Z,71.00
2018-09-02T23:47:28.083Z,71.10
2018-09-02T23:49:57.457Z,71.20
2018-09-02T23:52:25.645Z,71.90
2018-09-02T23:55:00.291Z,71.50
2018-09-02T23:57:28.543Z,71.50
2018-09-02T23:59:56.721Z,71.80
